Aeroporto :
LOGIN :

Iscrizione | Disclaimer

   EN    FR    IT 

 










Sommario :    VFR   VFR Marginale   IFR   IFR Intensivo   IFR Molto Intensivo
Visibilità : 
Base nubi : 
>= 8 km
>= 3000ft
5 / 8 km
1000 / 3000 ft
1500m / 5 km
500 / 1000 ft
800 / 1500m
200 / 500 ft
< 800m
< 200 ft
Simboli :   Temporali  Nebbia  Neve Forte  Precipitazioni Forti  Vento > 20 kt
SIGMETs :   Varie  Temporali  Ghiacco  Turbolenza  Onda orograficha  Ceneri Vulcaniche






- Altitudine del aeroporto : 128 ft


ETND - Diepholz

ULTIMO METAR :
  • 090720Z 01004KT 9999 FEW300 18/13 Q1028 BLU+BLU+

METARs OBSOLETI :
  • 090620Z 02003KT 9999 FEW300 16/12 Q1028 BLU+BLU+
  • 090520Z 01003KT 9999 FEW300 14/12 Q1028 BLU+BLU+

TAF TAF ETND
Valido dal 09 a 08 ore il 09 a 17 ore UTC


090702Z 0908/0917 02007KT 9999 NSW SKC BY ETGL



MetMap, La meteo Aeronautica in un colpo d'occhio ! - Copyright ORBIFLY Dicembre 2007 - Disclaimer

ORBIFLY MET'MAP TEAM :

Programmazione e sviluppo : Alexandra Zaïnal
Concezione : Baudouin d'Aumeries
Supporto tecnico e logistico : Manuel Goepfert
Aiuto : Marc-Olivier Méhu
Aiuto per la traduzione : Arnaldo La Scala




FONTI E CREDITI :

   NOAA